createdAt,value
2019-05-03T00:02:32.307Z,101316.25
2019-05-03T00:05:19.352Z,101311.91
2019-05-03T00:07:52.582Z,101315.08
2019-05-03T00:10:26.961Z,101317.28
2019-05-03T00:13:01.927Z,101311.94
2019-05-03T00:15:53.388Z,101310.78
2019-05-03T00:18:23.642Z,101311.31
2019-05-03T00:20:53.933Z,101321.09
2019-05-03T00:23:26.498Z,101316.70
2019-05-03T00:25:57.720Z,101321.53
2019-05-03T00:28:27.818Z,101321.13
2019-05-03T00:30:57.998Z,101320.78
2019-05-03T00:33:37.114Z,101314.73
2019-05-03T00:36:22.352Z,101317.08
2019-05-03T00:39:01.970Z,101316.01
2019-05-03T00:41:42.593Z,101314.59
2019-05-03T00:44:22.392Z,101318.52
2019-05-03T00:46:56.780Z,101311.61
2019-05-03T00:49:26.988Z,101320.45
2019-05-03T00:51:59.703Z,101316.77
2019-05-03T00:54:29.453Z,101318.39
2019-05-03T00:56:59.627Z,101318.95
2019-05-03T00:59:33.875Z,101317.91
2019-05-03T01:02:07.079Z,101319.02
2019-05-03T01:04:40.321Z,101318.53
2019-05-03T01:07:11.700Z,101322.16
2019-05-03T01:09:49.473Z,101322.58
2019-05-03T01:12:21.970Z,101327.21
2019-05-03T01:15:08.136Z,101323.45
2019-05-03T01:17:38.378Z,101328.34
2019-05-03T01:20:13.662Z,101327.63
2019-05-03T01:22:43.008Z,101331.57
2019-05-03T01:25:13.218Z,101332.94
2019-05-03T01:27:43.461Z,101336.31
2019-05-03T01:30:17.693Z,101346.05
2019-05-03T01:32:48.013Z,101333.57
2019-05-03T01:35:27.085Z,101339.83
2019-05-03T01:38:09.272Z,101341.34
2019-05-03T01:40:39.518Z,101340.55
2019-05-03T01:43:11.564Z,101340.66
2019-05-03T01:45:42.485Z,101334.57
2019-05-03T01:48:34.867Z,101339.75
2019-05-03T01:51:36.377Z,101345.83
2019-05-03T01:54:06.628Z,101342.89
2019-05-03T01:56:37.007Z,101348.83
2019-05-03T01:59:07.242Z,101345.30
2019-05-03T02:01:58.738Z,101346.44
2019-05-03T02:04:36.130Z,101343.20
2019-05-03T02:07:11.688Z,101343.84
2019-05-03T02:09:44.196Z,101346.02
2019-05-03T02:12:14.386Z,101336.31
2019-05-03T02:14:44.583Z,101340.80
2019-05-03T02:17:14.690Z,101342.80
2019-05-03T02:19:47.994Z,101340.31
2019-05-03T02:22:22.614Z,101341.84
2019-05-03T02:24:56.675Z,101343.79
2019-05-03T02:27:26.845Z,101347.26
2019-05-03T02:29:57.028Z,101345.79
2019-05-03T02:32:27.239Z,101349.98
2019-05-03T02:34:57.292Z,101349.00
2019-05-03T02:37:27.514Z,101354.16
2019-05-03T02:39:57.801Z,101355.11
2019-05-03T02:42:27.919Z,101364.77
2019-05-03T02:44:59.879Z,101356.20
2019-05-03T02:47:47.036Z,101358.03
2019-05-03T02:50:18.867Z,101365.18
2019-05-03T02:52:48.999Z,101363.03
2019-05-03T02:55:18.990Z,101365.68
2019-05-03T02:57:56.056Z,101370.77
2019-05-03T03:01:00.894Z,101372.45
2019-05-03T03:03:32.267Z,101372.75
2019-05-03T03:06:07.163Z,101380.99
2019-05-03T03:08:38.982Z,101382.09
2019-05-03T03:11:09.506Z,101384.03
2019-05-03T03:13:45.773Z,101389.23
2019-05-03T03:16:20.512Z,101391.09
2019-05-03T03:18:49.857Z,101385.07
2019-05-03T03:21:25.962Z,101387.38
2019-05-03T03:24:07.386Z,101394.33
2019-05-03T03:26:42.788Z,101397.41
2019-05-03T03:29:11.917Z,101400.54
2019-05-03T03:32:10.244Z,101390.39
2019-05-03T03:34:54.631Z,101389.39
2019-05-03T03:37:18.827Z,101386.00
2019-05-03T03:39:49.596Z,101389.13
2019-05-03T03:42:20.219Z,101388.58
2019-05-03T03:44:50.666Z,101374.73
2019-05-03T03:47:21.561Z,101380.88
2019-05-03T03:49:52.164Z,101381.15
2019-05-03T03:52:26.631Z,101384.08
2019-05-03T03:54:58.236Z,101391.36
2019-05-03T03:57:28.700Z,101387.45
2019-05-03T03:59:59.504Z,101394.47
2019-05-03T04:02:29.833Z,101401.83
2019-05-03T04:04:59.869Z,101399.16
2019-05-03T04:07:36.104Z,101410.95
2019-05-03T04:10:08.409Z,101412.72
2019-05-03T04:12:39.950Z,101415.73
2019-05-03T04:15:28.237Z,101419.73
2019-05-03T04:18:16.975Z,101414.75
2019-05-03T04:20:49.947Z,101414.43
2019-05-03T04:23:20.137Z,101411.68
2019-05-03T04:25:50.339Z,101417.13
2019-05-03T04:28:21.593Z,101414.26
2019-05-03T04:30:51.755Z,101418.72
2019-05-03T04:33:27.267Z,101429.89
2019-05-03T04:35:57.006Z,101427.79
2019-05-03T04:38:27.213Z,101434.35
2019-05-03T04:40:58.734Z,101430.37
2019-05-03T04:43:30.218Z,101431.13
2019-05-03T04:46:16.189Z,101434.47
2019-05-03T04:48:45.045Z,101438.19
2019-05-03T04:51:16.675Z,101437.30
2019-05-03T04:53:52.864Z,101438.88
2019-05-03T04:56:25.993Z,101442.16
2019-05-03T04:58:57.393Z,101436.34
2019-05-03T05:01:27.425Z,101433.54
2019-05-03T05:03:57.457Z,101437.68
2019-05-03T05:06:27.576Z,101440.80
2019-05-03T05:08:59.264Z,101443.15
2019-05-03T05:11:31.159Z,101441.78
2019-05-03T05:14:06.417Z,101448.91
2019-05-03T05:16:39.631Z,101453.48
2019-05-03T05:19:12.102Z,101459.56
2019-05-03T05:21:48.069Z,101460.65
2019-05-03T05:24:18.194Z,101464.49
2019-05-03T05:27:07.483Z,101458.47
2019-05-03T05:29:38.371Z,101455.48
2019-05-03T05:32:09.632Z,101455.56
2019-05-03T05:34:40.828Z,101456.50
2019-05-03T05:37:10.865Z,101458.66
2019-05-03T05:39:40.970Z,101458.50
2019-05-03T05:42:25.202Z,101463.73
2019-05-03T05:44:58.523Z,101464.69
2019-05-03T05:48:01.070Z,101459.42
2019-05-03T05:50:34.942Z,101462.37
2019-05-03T05:53:05.278Z,101463.28
2019-05-03T05:56:09.444Z,101466.83
2019-05-03T05:59:14.848Z,101460.16
2019-05-03T06:02:09.236Z,101465.82
2019-05-03T06:04:40.803Z,101472.40
2019-05-03T06:07:27.460Z,101470.96
2019-05-03T06:10:06.711Z,101473.84
2019-05-03T06:12:58.718Z,101480.29
2019-05-03T06:15:51.916Z,101485.19
2019-05-03T06:18:32.265Z,101481.98
2019-05-03T06:21:09.358Z,101480.28
2019-05-03T06:23:49.850Z,101478.10
2019-05-03T06:26:34.875Z,101483.59
2019-05-03T06:29:05.140Z,101479.08
2019-05-03T06:31:55.051Z,101481.72
2019-05-03T06:34:27.351Z,101487.20
2019-05-03T06:36:59.209Z,101485.91
2019-05-03T06:39:29.319Z,101492.09
2019-05-03T06:41:59.323Z,101496.22
2019-05-03T06:44:29.357Z,101493.08
2019-05-03T06:47:01.165Z,101497.00
2019-05-03T06:49:32.018Z,101497.19
2019-05-03T06:52:02.013Z,101494.70
2019-05-03T06:54:32.073Z,101498.37
2019-05-03T06:57:07.786Z,101500.98
2019-05-03T06:59:42.515Z,101502.60
2019-05-03T07:02:20.675Z,101500.70
2019-05-03T07:04:52.289Z,101502.91
2019-05-03T07:07:31.444Z,101499.39
2019-05-03T07:10:15.236Z,101493.48
2019-05-03T07:13:05.017Z,101497.06
2019-05-03T07:15:35.357Z,101496.77
2019-05-03T07:18:15.907Z,101497.98
2019-05-03T07:20:56.925Z,101494.19
2019-05-03T07:23:26.219Z,101495.70
2019-05-03T07:25:56.381Z,101495.45
2019-05-03T07:28:26.453Z,101494.20
2019-05-03T07:30:56.451Z,101497.25
2019-05-03T07:33:31.528Z,101493.23
2019-05-03T07:36:01.531Z,101496.55
2019-05-03T07:38:31.619Z,101496.14
2019-05-03T07:41:05.271Z,101494.98
2019-05-03T07:43:37.003Z,101493.85
2019-05-03T07:46:06.991Z,101497.30
2019-05-03T07:48:40.587Z,101491.41
2019-05-03T07:51:10.620Z,101487.19
2019-05-03T07:53:40.698Z,101487.05
2019-05-03T07:56:14.959Z,101488.77
2019-05-03T07:58:59.476Z,101496.23
2019-05-03T08:01:25.141Z,101490.84
2019-05-03T08:03:55.325Z,101496.42
2019-05-03T08:06:25.330Z,101493.91
2019-05-03T08:08:55.402Z,101492.10
2019-05-03T08:11:25.419Z,101484.34
2019-05-03T08:13:55.411Z,101480.45
2019-05-03T08:16:25.473Z,101481.34
2019-05-03T08:18:57.148Z,101479.91
2019-05-03T08:21:27.120Z,101482.64
2019-05-03T08:23:57.185Z,101487.02
2019-05-03T08:26:27.168Z,101481.45
2019-05-03T08:28:57.194Z,101483.45
2019-05-03T08:31:41.516Z,101476.30
2019-05-03T08:34:29.564Z,101483.89
2019-05-03T08:37:07.651Z,101486.50
2019-05-03T08:39:37.666Z,101484.14
2019-05-03T08:42:11.213Z,101490.17
2019-05-03T08:44:41.358Z,101486.75
2019-05-03T08:47:11.392Z,101487.91
2019-05-03T08:49:41.472Z,101486.84
2019-05-03T08:52:11.465Z,101486.36
2019-05-03T08:54:41.572Z,101482.89
2019-05-03T08:57:11.573Z,101487.66
2019-05-03T08:59:41.535Z,101488.31
2019-05-03T09:02:17.677Z,101494.26
2019-05-03T09:04:45.934Z,101489.69
2019-05-03T09:07:14.988Z,101488.80
2019-05-03T09:10:05.282Z,101486.84
2019-05-03T09:12:47.667Z,101481.98
2019-05-03T09:15:17.693Z,101485.88
2019-05-03T09:17:47.687Z,101491.41
2019-05-03T09:20:17.734Z,101495.83
2019-05-03T09:22:47.752Z,101486.66
2019-05-03T09:25:17.805Z,101491.03
2019-05-03T09:27:47.738Z,101485.98
2019-05-03T09:30:18.189Z,101481.17
2019-05-03T09:32:48.160Z,101477.31
2019-05-03T09:35:29.816Z,101483.53
2019-05-03T09:37:49.821Z,101481.22
2019-05-03T09:40:19.883Z,101475.51
2019-05-03T09:42:49.812Z,101469.77
2019-05-03T09:45:19.832Z,101475.52
2019-05-03T09:47:50.719Z,101473.84
2019-05-03T09:50:20.728Z,101476.33
2019-05-03T09:52:50.744Z,101467.02
2019-05-03T09:55:26.373Z,101472.16
2019-05-03T09:57:56.299Z,101468.39
2019-05-03T10:00:26.307Z,101461.80
2019-05-03T10:02:56.325Z,101464.72
2019-05-03T10:05:26.410Z,101464.52
2019-05-03T10:07:56.343Z,101453.96
2019-05-03T10:10:26.337Z,101467.37
2019-05-03T10:12:56.643Z,101470.01
2019-05-03T10:15:40.373Z,101464.96
2019-05-03T10:18:13.302Z,101466.58
2019-05-03T10:20:44.637Z,101475.91
2019-05-03T10:23:36.481Z,101472.07
2019-05-03T10:26:06.535Z,101457.66
2019-05-03T10:28:36.537Z,101470.59
2019-05-03T10:31:07.849Z,101458.53
2019-05-03T10:33:45.642Z,101463.13
2019-05-03T10:36:16.550Z,101467.48
2019-05-03T10:38:46.633Z,101460.95
2019-05-03T10:41:16.660Z,101456.25
2019-05-03T10:43:46.636Z,101453.21
2019-05-03T10:46:16.668Z,101461.45
2019-05-03T10:48:46.712Z,101458.55
2019-05-03T10:51:16.696Z,101462.41
2019-05-03T10:53:50.798Z,101466.70
2019-05-03T10:56:29.424Z,101466.12
2019-05-03T10:59:06.194Z,101462.88
2019-05-03T11:01:54.508Z,101460.13
2019-05-03T11:04:25.302Z,101459.72
2019-05-03T11:06:55.324Z,101453.58
2019-05-03T11:09:26.029Z,101449.91
2019-05-03T11:11:56.053Z,101458.44
2019-05-03T11:14:26.019Z,101444.95
2019-05-03T11:17:14.946Z,101447.63
2019-05-03T11:19:45.457Z,101459.06
2019-05-03T11:22:15.688Z,101470.58
2019-05-03T11:24:45.685Z,101471.95
2019-05-03T11:27:31.812Z,101467.14
2019-05-03T11:30:01.847Z,101471.29
2019-05-03T11:32:37.988Z,101471.72
2019-05-03T11:35:18.632Z,101468.07
2019-05-03T11:37:52.619Z,101480.08
2019-05-03T11:40:22.614Z,101464.51
2019-05-03T11:42:55.376Z,101456.02
2019-05-03T11:45:25.354Z,101462.00
2019-05-03T11:47:55.379Z,101456.23
2019-05-03T11:50:25.548Z,101451.87
2019-05-03T11:52:55.550Z,101454.02
2019-05-03T11:55:26.851Z,101451.63
2019-05-03T11:57:57.017Z,101450.00
2019-05-03T12:00:32.811Z,101448.29
2019-05-03T12:03:11.608Z,101438.41
2019-05-03T12:05:43.961Z,101439.17
2019-05-03T12:08:14.745Z,101437.91
2019-05-03T12:10:55.343Z,101443.19
2019-05-03T12:13:25.511Z,101436.63
2019-05-03T12:15:56.537Z,101436.16
2019-05-03T12:18:27.969Z,101431.52
2019-05-03T12:21:00.936Z,101432.50
2019-05-03T12:23:32.307Z,101428.95
2019-05-03T12:26:09.464Z,101431.75
2019-05-03T12:28:35.441Z,101432.12
2019-05-03T12:31:05.785Z,101426.94
2019-05-03T12:33:35.900Z,101425.64
2019-05-03T12:36:06.277Z,101426.94
2019-05-03T12:38:36.339Z,101427.45
2019-05-03T12:41:06.392Z,101425.06
2019-05-03T12:43:36.404Z,101428.30
2019-05-03T12:46:06.445Z,101430.55
2019-05-03T12:48:36.475Z,101428.98
2019-05-03T12:51:07.592Z,101425.62
2019-05-03T12:53:37.981Z,101429.30
2019-05-03T12:56:11.495Z,101425.00
2019-05-03T12:59:01.734Z,101430.97
2019-05-03T13:01:45.940Z,101426.05
2019-05-03T13:04:25.002Z,101417.70
2019-05-03T13:07:17.639Z,101416.13
2019-05-03T13:09:47.597Z,101420.58
2019-05-03T13:12:19.787Z,101422.19
2019-05-03T13:14:49.776Z,101418.43
2019-05-03T13:17:35.953Z,101414.77
2019-05-03T13:20:10.794Z,101407.19
2019-05-03T13:22:40.908Z,101405.78
2019-05-03T13:25:11.185Z,101401.16
2019-05-03T13:27:41.285Z,101395.63
2019-05-03T13:30:11.519Z,101390.34
2019-05-03T13:32:41.464Z,101394.75
2019-05-03T13:35:11.884Z,101395.76
2019-05-03T13:37:41.823Z,101413.17
2019-05-03T13:40:12.501Z,101404.46
2019-05-03T13:42:54.173Z,101400.81
2019-05-03T13:45:14.231Z,101389.64
2019-05-03T13:47:44.709Z,101383.22
2019-05-03T13:50:15.245Z,101392.08
2019-05-03T13:52:45.425Z,101389.02
2019-05-03T13:55:15.451Z,101393.64
2019-05-03T13:57:45.984Z,101380.97
2019-05-03T14:00:17.303Z,101385.84
2019-05-03T14:02:47.366Z,101387.20
2019-05-03T14:05:17.399Z,101384.80
2019-05-03T14:07:47.420Z,101384.33
2019-05-03T14:10:17.687Z,101382.78
2019-05-03T14:12:47.709Z,101389.67
2019-05-03T14:15:17.739Z,101377.90
2019-05-03T14:17:47.718Z,101382.02
2019-05-03T14:20:30.149Z,101383.59
2019-05-03T14:23:01.664Z,101368.39
2019-05-03T14:25:31.736Z,101368.48
2019-05-03T14:28:01.785Z,101372.67
2019-05-03T14:30:31.723Z,101371.80
2019-05-03T14:33:01.707Z,101378.08
2019-05-03T14:35:34.527Z,101365.34
2019-05-03T14:38:06.053Z,101373.77
2019-05-03T14:40:36.311Z,101382.22
2019-05-03T14:43:06.338Z,101368.67
2019-05-03T14:45:36.274Z,101377.85
2019-05-03T14:48:06.466Z,101370.33
2019-05-03T14:50:37.474Z,101372.36
2019-05-03T14:53:09.089Z,101353.66
2019-05-03T14:55:45.391Z,101351.95
2019-05-03T14:58:40.333Z,101357.49
2019-05-03T15:01:18.163Z,101353.09
2019-05-03T15:03:48.195Z,101344.83
2019-05-03T15:06:18.195Z,101349.79
2019-05-03T15:08:48.197Z,101337.52
2019-05-03T15:11:18.227Z,101337.41
2019-05-03T15:13:51.751Z,101339.84
2019-05-03T15:16:21.793Z,101332.48
2019-05-03T15:18:51.663Z,101335.56
2019-05-03T15:21:25.214Z,101336.84
2019-05-03T15:23:55.402Z,101328.85
2019-05-03T15:26:26.362Z,101321.39
2019-05-03T15:28:56.304Z,101319.73
2019-05-03T15:31:26.724Z,101325.31
2019-05-03T15:33:56.728Z,101318.81
2019-05-03T15:36:27.576Z,101320.51
2019-05-03T15:38:57.558Z,101323.83
2019-05-03T15:41:35.241Z,101320.97
2019-05-03T15:44:17.974Z,101319.02
2019-05-03T15:46:55.456Z,101315.35
2019-05-03T15:49:27.712Z,101327.59
2019-05-03T15:51:58.372Z,101329.77
2019-05-03T15:54:28.263Z,101328.72
2019-05-03T15:56:59.325Z,101328.72
2019-05-03T15:59:29.313Z,101332.23
2019-05-03T16:02:00.935Z,101328.30
2019-05-03T16:04:35.728Z,101333.22
2019-05-03T16:07:06.931Z,101330.50
2019-05-03T16:09:36.985Z,101325.02
2019-05-03T16:12:07.001Z,101320.44
2019-05-03T16:14:37.132Z,101315.73
2019-05-03T16:17:07.152Z,101314.97
2019-05-03T16:19:37.219Z,101324.72
2019-05-03T16:22:07.189Z,101313.40
2019-05-03T16:24:37.237Z,101315.20
2019-05-03T16:27:26.646Z,101308.72
2019-05-03T16:29:56.650Z,101316.77
2019-05-03T16:32:26.731Z,101309.95
2019-05-03T16:34:56.734Z,101306.04
2019-05-03T16:37:26.721Z,101310.20
2019-05-03T16:39:57.893Z,101314.66
2019-05-03T16:42:27.888Z,101315.60
2019-05-03T16:44:57.876Z,101316.03
2019-05-03T16:47:28.938Z,101305.82
2019-05-03T16:49:58.932Z,101307.55
2019-05-03T16:52:28.974Z,101299.32
2019-05-03T16:54:58.874Z,101311.30
2019-05-03T16:57:28.989Z,101306.76
2019-05-03T16:59:59.023Z,101304.50
2019-05-03T17:02:29.041Z,101307.52
2019-05-03T17:05:17.192Z,101302.17
2019-05-03T17:07:53.167Z,101298.69
2019-05-03T17:10:27.298Z,101291.17
2019-05-03T17:12:57.312Z,101297.88
2019-05-03T17:15:27.224Z,101295.42
2019-05-03T17:17:58.032Z,101293.70
2019-05-03T17:20:28.076Z,101299.92
2019-05-03T17:22:58.206Z,101298.06
2019-05-03T17:25:28.175Z,101297.00
2019-05-03T17:27:58.124Z,101294.16
2019-05-03T17:30:33.786Z,101290.59
2019-05-03T17:32:59.970Z,101294.70
2019-05-03T17:35:29.954Z,101292.80
2019-05-03T17:37:59.935Z,101289.44
2019-05-03T17:40:48.532Z,101287.05
2019-05-03T17:43:24.361Z,101283.70
2019-05-03T17:45:55.806Z,101289.20
2019-05-03T17:48:25.934Z,101286.90
2019-05-03T17:50:56.343Z,101295.22
2019-05-03T17:53:54.993Z,101293.50
2019-05-03T17:56:44.505Z,101294.72
2019-05-03T17:59:20.392Z,101295.67
2019-05-03T18:02:08.376Z,101307.21
2019-05-03T18:05:09.492Z,101296.55
2019-05-03T18:08:14.205Z,101289.95
2019-05-03T18:10:49.414Z,101292.22
2019-05-03T18:13:19.302Z,101287.00
2019-05-03T18:15:49.356Z,101285.91
2019-05-03T18:18:20.738Z,101291.59
2019-05-03T18:20:50.870Z,101287.98
2019-05-03T18:23:24.684Z,101296.91
2019-05-03T18:25:55.039Z,101290.63
2019-05-03T18:28:25.853Z,101289.75
2019-05-03T18:31:05.162Z,101291.13
2019-05-03T18:33:36.974Z,101291.34
2019-05-03T18:36:08.587Z,101284.75
2019-05-03T18:38:40.184Z,101286.84
2019-05-03T18:41:14.266Z,101283.42
2019-05-03T18:44:02.602Z,101285.92
2019-05-03T18:46:55.075Z,101289.14
2019-05-03T18:49:25.525Z,101284.94
2019-05-03T18:51:55.723Z,101291.61
2019-05-03T18:54:28.325Z,101283.76
2019-05-03T18:57:02.185Z,101292.34
2019-05-03T18:59:35.064Z,101292.34
2019-05-03T19:02:07.692Z,101293.63
2019-05-03T19:04:51.313Z,101289.61
2019-05-03T19:07:41.258Z,101285.43
2019-05-03T19:10:40.549Z,101286.33
2019-05-03T19:14:04.713Z,101283.02
2019-05-03T19:17:11.511Z,101286.78
2019-05-03T19:19:49.639Z,101279.80
2019-05-03T19:22:20.694Z,101279.86
2019-05-03T19:24:54.714Z,101276.90
2019-05-03T19:27:48.770Z,101270.87
2019-05-03T19:30:17.670Z,101266.95
2019-05-03T19:32:58.049Z,101262.67
2019-05-03T19:35:39.833Z,101267.02
2019-05-03T19:38:07.809Z,101272.47
2019-05-03T19:40:39.730Z,101265.08
2019-05-03T19:43:15.300Z,101260.98
2019-05-03T19:45:46.151Z,101263.25
2019-05-03T19:48:18.654Z,101252.14
2019-05-03T19:50:51.029Z,101256.67
2019-05-03T19:53:48.182Z,101259.22
2019-05-03T19:56:25.530Z,101256.31
2019-05-03T19:58:59.377Z,101267.52
2019-05-03T20:01:39.188Z,101262.84
2019-05-03T20:04:35.070Z,101260.27
2019-05-03T20:07:42.453Z,101264.83
2019-05-03T20:10:14.666Z,101268.68
2019-05-03T20:12:46.682Z,101277.45
2019-05-03T20:15:16.883Z,101282.62
2019-05-03T20:17:59.124Z,101272.66
2019-05-03T20:20:20.372Z,101274.18
2019-05-03T20:22:50.541Z,101269.93
2019-05-03T20:25:20.817Z,101267.52
2019-05-03T20:27:55.940Z,101261.09
2019-05-03T20:30:26.218Z,101262.59
2019-05-03T20:32:56.521Z,101258.59
2019-05-03T20:35:26.640Z,101256.09
2019-05-03T20:37:56.818Z,101255.55
2019-05-03T20:40:26.975Z,101254.03
2019-05-03T20:43:09.845Z,101249.67
2019-05-03T20:45:57.685Z,101251.92
2019-05-03T20:48:27.838Z,101251.92
2019-05-03T20:50:58.037Z,101243.72
2019-05-03T20:53:28.191Z,101244.12
2019-05-03T20:55:58.304Z,101237.47
2019-05-03T20:58:28.508Z,101239.24
2019-05-03T21:00:58.626Z,101235.22
2019-05-03T21:03:28.768Z,101240.18
2019-05-03T21:05:58.710Z,101238.89
2019-05-03T21:08:28.918Z,101238.17
2019-05-03T21:10:59.065Z,101234.86
2019-05-03T21:13:39.920Z,101229.53
2019-05-03T21:16:17.748Z,101237.47
2019-05-03T21:18:53.375Z,101233.35
2019-05-03T21:21:42.060Z,101228.77
2019-05-03T21:24:24.210Z,101231.04
2019-05-03T21:26:54.674Z,101228.55
2019-05-03T21:29:25.176Z,101216.49
2019-05-03T21:31:55.341Z,101215.44
2019-05-03T21:34:26.471Z,101219.11
2019-05-03T21:36:56.939Z,101215.55
2019-05-03T21:39:28.804Z,101220.26
2019-05-03T21:41:58.966Z,101215.44
2019-05-03T21:44:32.858Z,101212.42
2019-05-03T21:47:31.169Z,101218.33
2019-05-03T21:50:01.999Z,101216.88
2019-05-03T21:52:40.272Z,101215.47
2019-05-03T21:55:14.481Z,101214.31
2019-05-03T21:57:47.221Z,101214.57
2019-05-03T22:00:17.804Z,101218.34
2019-05-03T22:02:49.546Z,101211.12
2019-05-03T22:05:19.677Z,101203.71
2019-05-03T22:07:49.791Z,101208.70
2019-05-03T22:10:20.009Z,101211.34
2019-05-03T22:12:50.169Z,101215.62
2019-05-03T22:15:39.272Z,101214.95
2019-05-03T22:18:18.907Z,101217.22
2019-05-03T22:21:11.676Z,101211.20
2019-05-03T22:24:04.535Z,101205.25
2019-05-03T22:26:52.739Z,101207.41
2019-05-03T22:29:25.222Z,101201.63
2019-05-03T22:31:55.056Z,101199.30
2019-05-03T22:34:25.857Z,101204.99
2019-05-03T22:36:56.268Z,101199.70
2019-05-03T22:39:26.468Z,101197.14
2019-05-03T22:41:56.635Z,101198.89
2019-05-03T22:44:31.193Z,101198.08
2019-05-03T22:47:01.403Z,101195.27
2019-05-03T22:49:31.659Z,101195.27
2019-05-03T22:52:04.805Z,101195.99
2019-05-03T22:54:34.764Z,101201.23
2019-05-03T22:57:05.013Z,101198.25
2019-05-03T22:59:36.336Z,101194.09
2019-05-03T23:02:06.475Z,101197.36
2019-05-03T23:04:36.681Z,101197.61
2019-05-03T23:07:07.948Z,101196.97
2019-05-03T23:09:38.102Z,101196.24
2019-05-03T23:12:09.303Z,101193.06
2019-05-03T23:14:39.480Z,101191.53
2019-05-03T23:17:09.626Z,101185.52
2019-05-03T23:19:44.905Z,101188.08
2019-05-03T23:22:24.609Z,101182.87
2019-05-03T23:24:55.054Z,101180.14
2019-05-03T23:27:25.281Z,101168.97
2019-05-03T23:29:55.390Z,101173.70
2019-05-03T23:32:25.534Z,101175.63
2019-05-03T23:34:55.661Z,101175.15
2019-05-03T23:37:25.909Z,101168.46
2019-05-03T23:39:55.972Z,101175.02
2019-05-03T23:42:26.001Z,101171.52
2019-05-03T23:44:56.066Z,101168.09
2019-05-03T23:47:40.056Z,101170.52
2019-05-03T23:50:13.443Z,101170.70
2019-05-03T23:52:45.189Z,101172.68
2019-05-03T23:55:35.759Z,101170.77
2019-05-03T23:58:05.886Z,101162.30
